Terminal Aerodrome Forecast
Issued by NWS Wichita, KS

Home | Current Version | Previous Version | Graphics & Text | Print | Product List | Glossary On
Versions: 1 2 3 4 5 6 7 8 9 10 11 12 13 14 15 16 17 18 19 20 21 22 23 24
000
FTUS43 KICT 150539
TAFICT
TAF
KICT 150539Z 1506/1606 06004KT 6SM -FZRA BKN008 OVC012
      TEMPO 1506/1510 3SM FZRA OVC007
     FM151000 04004KT 6SM -FZDZ BR OVC006
     FM151500 06005KT 6SM -DZ BR OVC006
     FM152000 05006KT 6SM BR OVC008=

USA.gov is the U.S. government's official web portal to all federal, state and local government web resources and services.